sensor_id;sensor_type;location;lat;lon;timestamp;P1;durP1;ratioP1;P2;durP2;ratioP2
76409;SDS011;65238;42.662;23.280;2022-11-15T11:35:54;149.50;;;60.75;;
76409;SDS011;65238;42.662;23.280;2022-11-15T11:47:03;129.25;;;56.35;;
76409;SDS011;65238;42.662;23.280;2022-11-15T11:52:17;142.65;;;59.22;;
76409;SDS011;65238;42.662;23.280;2022-11-15T11:57:24;138.32;;;60.40;;
76409;SDS011;65238;42.662;23.280;2022-11-15T11:59:58;143.98;;;61.88;;
76409;SDS011;65238;42.662;23.280;2022-11-15T12:05:05;136.38;;;59.33;;
76409;SDS011;65238;42.662;23.280;2022-11-15T12:07:58;132.93;;;56.42;;
76409;SDS011;65238;42.662;23.280;2022-11-15T12:10:30;117.65;;;55.05;;
76409;SDS011;65238;42.662;23.280;2022-11-15T12:13:04;128.50;;;58.65;;
76409;SDS011;65238;42.662;23.280;2022-11-15T12:15:48;137.63;;;61.17;;
76409;SDS011;65238;42.662;23.280;2022-11-15T12:18:21;119.72;;;58.42;;
76409;SDS011;65238;42.662;23.280;2022-11-15T12:20:57;128.90;;;59.10;;
76409;SDS011;65238;42.662;23.280;2022-11-15T12:23:39;130.98;;;60.67;;
76409;SDS011;65238;42.662;23.280;2022-11-15T12:26:14;128.00;;;60.33;;
76409;SDS011;65238;42.662;23.280;2022-11-15T12:28:49;133.77;;;60.58;;
76409;SDS011;65238;42.662;23.280;2022-11-15T12:31:24;137.48;;;61.20;;
76409;SDS011;65238;42.662;23.280;2022-11-15T12:34:01;124.80;;;60.22;;
76409;SDS011;65238;42.662;23.280;2022-11-15T12:36:39;118.82;;;59.65;;
76409;SDS011;65238;42.662;23.280;2022-11-15T12:39:08;139.43;;;60.53;;
76409;SDS011;65238;42.662;23.280;2022-11-15T12:41:41;133.82;;;60.92;;
76409;SDS011;65238;42.662;23.280;2022-11-15T13:04:52;116.38;;;58.75;;
76409;SDS011;65238;42.662;23.280;2022-11-15T13:10:01;121.28;;;60.63;;
76409;SDS011;65238;42.662;23.280;2022-11-15T13:17:39;118.78;;;57.63;;
76409;SDS011;65238;42.662;23.280;2022-11-15T13:25:40;119.65;;;57.47;;
76409;SDS011;65238;42.662;23.280;2022-11-15T13:28:33;117.35;;;54.45;;
76409;SDS011;65238;42.662;23.280;2022-11-15T13:33:52;111.53;;;54.35;;
76409;SDS011;65238;42.662;23.280;2022-11-15T13:36:19;107.32;;;53.78;;
76409;SDS011;65238;42.662;23.280;2022-11-15T13:38:54;117.15;;;55.28;;
76409;SDS011;65238;42.662;23.280;2022-11-15T13:41:24;115.85;;;56.35;;
76409;SDS011;65238;42.662;23.280;2022-11-15T13:43:54;108.88;;;53.63;;
76409;SDS011;65238;42.662;23.280;2022-11-15T13:46:21;117.43;;;54.72;;
76409;SDS011;65238;42.662;23.280;2022-11-15T13:48:53;114.50;;;55.10;;
76409;SDS011;65238;42.662;23.280;2022-11-15T13:56:31;111.53;;;54.70;;
76409;SDS011;65238;42.662;23.280;2022-11-15T13:58:57;104.00;;;53.38;;
76409;SDS011;65238;42.662;23.280;2022-11-15T14:01:23;112.78;;;54.22;;
76409;SDS011;65238;42.662;23.280;2022-11-15T14:03:56;110.43;;;53.63;;
76409;SDS011;65238;42.662;23.280;2022-11-15T14:06:30;122.00;;;56.80;;
76409;SDS011;65238;42.662;23.280;2022-11-15T14:11:28;106.13;;;51.50;;
76409;SDS011;65238;42.662;23.280;2022-11-15T14:19:02;119.20;;;55.53;;
76409;SDS011;65238;42.662;23.280;2022-11-15T14:21:28;110.30;;;53.08;;
76409;SDS011;65238;42.662;23.280;2022-11-15T14:24:13;121.93;;;57.15;;
76409;SDS011;65238;42.662;23.280;2022-11-15T14:26:42;128.55;;;60.13;;
76409;SDS011;65238;42.662;23.280;2022-11-15T14:29:26;123.95;;;57.83;;
76409;SDS011;65238;42.662;23.280;2022-11-15T14:31:53;127.18;;;61.92;;
76409;SDS011;65238;42.662;23.280;2022-11-15T14:34:19;133.70;;;63.28;;
76409;SDS011;65238;42.662;23.280;2022-11-15T14:36:47;121.18;;;60.95;;
76409;SDS011;65238;42.662;23.280;2022-11-15T14:39:12;137.13;;;64.50;;
76409;SDS011;65238;42.662;23.280;2022-11-15T14:41:38;128.88;;;65.63;;
76409;SDS011;65238;42.662;23.280;2022-11-15T14:44:04;139.02;;;69.15;;
76409;SDS011;65238;42.662;23.280;2022-11-15T14:46:30;140.38;;;68.55;;
76409;SDS011;65238;42.662;23.280;2022-11-15T14:48:55;160.95;;;75.03;;
76409;SDS011;65238;42.662;23.280;2022-11-15T14:51:21;167.45;;;82.85;;
76409;SDS011;65238;42.662;23.280;2022-11-15T14:53:47;161.18;;;82.38;;
76409;SDS011;65238;42.662;23.280;2022-11-15T14:56:12;167.00;;;83.75;;
76409;SDS011;65238;42.662;23.280;2022-11-15T14:58:38;161.23;;;82.13;;
76409;SDS011;65238;42.662;23.280;2022-11-15T15:01:12;168.07;;;78.65;;
76409;SDS011;65238;42.662;23.280;2022-11-15T15:03:48;179.13;;;81.43;;
76409;SDS011;65238;42.662;23.280;2022-11-15T15:06:16;178.77;;;87.38;;
76409;SDS011;65238;42.662;23.280;2022-11-15T15:08:42;171.32;;;83.55;;
76409;SDS011;65238;42.662;23.280;2022-11-15T15:11:12;177.23;;;82.65;;
76409;SDS011;65238;42.662;23.280;2022-11-15T15:13:40;154.90;;;79.18;;
76409;SDS011;65238;42.662;23.280;2022-11-15T15:16:06;146.98;;;71.93;;
76409;SDS011;65238;42.662;23.280;2022-11-15T15:18:31;143.35;;;67.82;;
76409;SDS011;65238;42.662;23.280;2022-11-15T15:20:57;131.45;;;64.20;;
76409;SDS011;65238;42.662;23.280;2022-11-15T15:23:32;141.43;;;64.43;;
76409;SDS011;65238;42.662;23.280;2022-11-15T15:25:58;119.65;;;57.67;;
76409;SDS011;65238;42.662;23.280;2022-11-15T15:28:24;126.43;;;59.17;;
76409;SDS011;65238;42.662;23.280;2022-11-15T15:30:49;123.47;;;55.88;;
76409;SDS011;65238;42.662;23.280;2022-11-15T15:33:15;124.85;;;58.13;;
76409;SDS011;65238;42.662;23.280;2022-11-15T15:35:41;120.60;;;57.55;;
76409;SDS011;65238;42.662;23.280;2022-11-15T15:38:08;125.60;;;56.67;;
76409;SDS011;65238;42.662;23.280;2022-11-15T15:40:36;115.35;;;54.22;;
76409;SDS011;65238;42.662;23.280;2022-11-15T15:43:01;121.40;;;58.50;;
76409;SDS011;65238;42.662;23.280;2022-11-15T15:45:26;129.85;;;60.72;;
76409;SDS011;65238;42.662;23.280;2022-11-15T15:47:53;115.00;;;54.65;;
76409;SDS011;65238;42.662;23.280;2022-11-15T15:52:55;270.20;;;101.05;;
76409;SDS011;65238;42.662;23.280;2022-11-15T15:55:22;727.67;;;276.40;;
76409;SDS011;65238;42.662;23.280;2022-11-15T15:57:47;769.08;;;293.33;;
76409;SDS011;65238;42.662;23.280;2022-11-15T16:00:13;626.15;;;232.38;;
76409;SDS011;65238;42.662;23.280;2022-11-15T16:02:39;330.77;;;122.63;;
76409;SDS011;65238;42.662;23.280;2022-11-15T16:05:05;387.77;;;140.98;;
76409;SDS011;65238;42.662;23.280;2022-11-15T16:07:31;510.25;;;178.40;;
76409;SDS011;65238;42.662;23.280;2022-11-15T16:09:59;533.10;;;193.65;;
76409;SDS011;65238;42.662;23.280;2022-11-15T16:12:29;349.23;;;124.30;;
76409;SDS011;65238;42.662;23.280;2022-11-15T16:14:55;221.15;;;84.28;;
76409;SDS011;65238;42.662;23.280;2022-11-15T16:17:21;220.90;;;91.72;;
76409;SDS011;65238;42.662;23.280;2022-11-15T16:19:48;223.45;;;87.60;;
76409;SDS011;65238;42.662;23.280;2022-11-15T16:22:13;236.40;;;93.07;;
76409;SDS011;65238;42.662;23.280;2022-11-15T16:24:38;211.13;;;87.68;;
76409;SDS011;65238;42.662;23.280;2022-11-15T16:27:04;207.48;;;88.70;;
76409;SDS011;65238;42.662;23.280;2022-11-15T16:29:29;236.23;;;91.10;;
76409;SDS011;65238;42.662;23.280;2022-11-15T16:31:55;420.63;;;153.55;;
76409;SDS011;65238;42.662;23.280;2022-11-15T16:34:21;429.02;;;159.23;;
76409;SDS011;65238;42.662;23.280;2022-11-15T16:36:46;422.35;;;156.27;;
76409;SDS011;65238;42.662;23.280;2022-11-15T16:39:12;401.92;;;151.48;;
76409;SDS011;65238;42.662;23.280;2022-11-15T16:41:46;353.75;;;134.35;;
76409;SDS011;65238;42.662;23.280;2022-11-15T16:44:12;348.60;;;127.82;;
76409;SDS011;65238;42.662;23.280;2022-11-15T16:46:40;373.45;;;131.48;;
76409;SDS011;65238;42.662;23.280;2022-11-15T16:49:13;430.95;;;153.57;;
76409;SDS011;65238;42.662;23.280;2022-11-15T16:51:39;463.75;;;168.75;;
76409;SDS011;65238;42.662;23.280;2022-11-15T16:54:05;608.40;;;232.43;;
76409;SDS011;65238;42.662;23.280;2022-11-15T16:56:31;654.30;;;259.50;;
76409;SDS011;65238;42.662;23.280;2022-11-15T16:58:58;451.42;;;163.82;;
76409;SDS011;65238;42.662;23.280;2022-11-15T17:01:25;405.67;;;144.05;;
76409;SDS011;65238;42.662;23.280;2022-11-15T17:03:52;314.75;;;119.88;;
76409;SDS011;65238;42.662;23.280;2022-11-15T17:06:17;255.05;;;106.28;;
76409;SDS011;65238;42.662;23.280;2022-11-15T17:08:44;250.32;;;99.20;;
76409;SDS011;65238;42.662;23.280;2022-11-15T17:11:17;276.52;;;108.13;;
76409;SDS011;65238;42.662;23.280;2022-11-15T17:13:43;288.67;;;113.70;;
76409;SDS011;65238;42.662;23.280;2022-11-15T17:16:11;221.20;;;92.20;;
76409;SDS011;65238;42.662;23.280;2022-11-15T17:18:38;211.38;;;91.93;;
76409;SDS011;65238;42.662;23.280;2022-11-15T17:21:05;190.07;;;82.95;;
76409;SDS011;65238;42.662;23.280;2022-11-15T17:23:41;179.73;;;79.97;;
76409;SDS011;65238;42.662;23.280;2022-11-15T17:26:07;168.45;;;74.90;;
76409;SDS011;65238;42.662;23.280;2022-11-15T17:28:35;156.70;;;71.47;;
76409;SDS011;65238;42.662;23.280;2022-11-15T17:31:01;185.38;;;80.38;;
76409;SDS011;65238;42.662;23.280;2022-11-15T17:33:26;199.40;;;85.63;;
76409;SDS011;65238;42.662;23.280;2022-11-15T17:35:58;234.38;;;101.13;;
76409;SDS011;65238;42.662;23.280;2022-11-15T17:38:25;224.45;;;95.13;;
76409;SDS011;65238;42.662;23.280;2022-11-15T17:41:04;242.13;;;100.32;;
76409;SDS011;65238;42.662;23.280;2022-11-15T17:43:31;224.80;;;100.25;;
76409;SDS011;65238;42.662;23.280;2022-11-15T17:45:58;220.57;;;99.22;;
76409;SDS011;65238;42.662;23.280;2022-11-15T17:48:30;221.90;;;97.97;;
76409;SDS011;65238;42.662;23.280;2022-11-15T17:50:59;219.52;;;98.13;;
76409;SDS011;65238;42.662;23.280;2022-11-15T17:53:33;229.57;;;102.78;;
76409;SDS011;65238;42.662;23.280;2022-11-15T17:56:05;231.23;;;102.75;;
76409;SDS011;65238;42.662;23.280;2022-11-15T17:58:32;231.57;;;100.28;;
76409;SDS011;65238;42.662;23.280;2022-11-15T18:03:42;222.15;;;96.32;;
76409;SDS011;65238;42.662;23.280;2022-11-15T18:06:08;232.15;;;98.35;;
76409;SDS011;65238;42.662;23.280;2022-11-15T18:08:34;200.68;;;94.72;;
76409;SDS011;65238;42.662;23.280;2022-11-15T18:11:09;266.92;;;106.10;;
76409;SDS011;65238;42.662;23.280;2022-11-15T18:13:38;222.32;;;100.00;;
76409;SDS011;65238;42.662;23.280;2022-11-15T18:16:05;233.35;;;100.43;;
76409;SDS011;65238;42.662;23.280;2022-11-15T18:18:33;206.95;;;95.85;;
76409;SDS011;65238;42.662;23.280;2022-11-15T18:21:00;213.25;;;93.72;;
76409;SDS011;65238;42.662;23.280;2022-11-15T18:23:33;211.15;;;97.68;;
76409;SDS011;65238;42.662;23.280;2022-11-15T18:26:00;212.93;;;96.68;;
76409;SDS011;65238;42.662;23.280;2022-11-15T18:28:28;201.55;;;92.65;;
76409;SDS011;65238;42.662;23.280;2022-11-15T18:30:57;220.43;;;96.38;;
76409;SDS011;65238;42.662;23.280;2022-11-15T18:33:23;207.90;;;94.35;;
76409;SDS011;65238;42.662;23.280;2022-11-15T18:35:48;228.15;;;98.03;;
76409;SDS011;65238;42.662;23.280;2022-11-15T18:38:14;232.35;;;98.28;;
76409;SDS011;65238;42.662;23.280;2022-11-15T18:40:39;228.98;;;97.28;;
76409;SDS011;65238;42.662;23.280;2022-11-15T18:43:05;232.57;;;101.78;;
76409;SDS011;65238;42.662;23.280;2022-11-15T18:45:32;205.38;;;93.45;;
76409;SDS011;65238;42.662;23.280;2022-11-15T18:47:58;193.07;;;89.47;;
76409;SDS011;65238;42.662;23.280;2022-11-15T18:50:24;193.98;;;89.35;;
76409;SDS011;65238;42.662;23.280;2022-11-15T18:52:49;193.45;;;91.43;;
76409;SDS011;65238;42.662;23.280;2022-11-15T18:55:14;199.05;;;92.60;;
76409;SDS011;65238;42.662;23.280;2022-11-15T18:57:40;195.13;;;89.68;;
76409;SDS011;65238;42.662;23.280;2022-11-15T19:00:06;186.73;;;87.72;;
76409;SDS011;65238;42.662;23.280;2022-11-15T19:02:33;192.45;;;88.15;;
76409;SDS011;65238;42.662;23.280;2022-11-15T19:04:58;185.93;;;85.32;;
76409;SDS011;65238;42.662;23.280;2022-11-15T19:07:24;199.50;;;89.10;;
76409;SDS011;65238;42.662;23.280;2022-11-15T19:09:49;190.40;;;88.45;;
76409;SDS011;65238;42.662;23.280;2022-11-15T19:12:14;196.60;;;88.60;;
76409;SDS011;65238;42.662;23.280;2022-11-15T19:14:40;182.70;;;82.40;;
76409;SDS011;65238;42.662;23.280;2022-11-15T19:17:05;196.48;;;83.38;;
76409;SDS011;65238;42.662;23.280;2022-11-15T19:19:31;177.57;;;82.10;;
76409;SDS011;65238;42.662;23.280;2022-11-15T19:21:57;161.35;;;70.10;;
76409;SDS011;65238;42.662;23.280;2022-11-15T19:24:22;163.73;;;73.25;;
76409;SDS011;65238;42.662;23.280;2022-11-15T19:26:48;154.27;;;75.43;;
76409;SDS011;65238;42.662;23.280;2022-11-15T19:29:14;158.52;;;76.53;;
76409;SDS011;65238;42.662;23.280;2022-11-15T19:31:39;155.68;;;71.78;;
76409;SDS011;65238;42.662;23.280;2022-11-15T19:34:05;158.88;;;72.57;;
76409;SDS011;65238;42.662;23.280;2022-11-15T19:36:41;152.77;;;70.85;;
76409;SDS011;65238;42.662;23.280;2022-11-15T19:39:11;145.55;;;69.50;;
76409;SDS011;65238;42.662;23.280;2022-11-15T19:41:41;154.55;;;69.47;;
76409;SDS011;65238;42.662;23.280;2022-11-15T19:44:07;157.35;;;71.90;;
76409;SDS011;65238;42.662;23.280;2022-11-15T19:46:34;135.75;;;67.70;;
76409;SDS011;65238;42.662;23.280;2022-11-15T19:48:59;149.13;;;72.00;;
76409;SDS011;65238;42.662;23.280;2022-11-15T19:51:25;139.95;;;70.78;;
76409;SDS011;65238;42.662;23.280;2022-11-15T19:53:53;146.55;;;68.93;;
76409;SDS011;65238;42.662;23.280;2022-11-15T19:56:20;138.95;;;68.90;;
76409;SDS011;65238;42.662;23.280;2022-11-15T19:58:48;134.63;;;66.25;;
76409;SDS011;65238;42.662;23.280;2022-11-15T20:01:17;149.02;;;69.05;;
76409;SDS011;65238;42.662;23.280;2022-11-15T20:03:46;158.60;;;73.10;;
76409;SDS011;65238;42.662;23.280;2022-11-15T20:06:12;164.80;;;73.13;;
76409;SDS011;65238;42.662;23.280;2022-11-15T20:08:41;158.65;;;74.85;;
76409;SDS011;65238;42.662;23.280;2022-11-15T20:11:06;150.85;;;74.20;;
76409;SDS011;65238;42.662;23.280;2022-11-15T20:13:32;172.05;;;78.90;;
76409;SDS011;65238;42.662;23.280;2022-11-15T20:15:58;171.27;;;82.38;;
76409;SDS011;65238;42.662;23.280;2022-11-15T20:18:24;148.95;;;76.93;;
76409;SDS011;65238;42.662;23.280;2022-11-15T20:20:50;159.43;;;75.65;;
76409;SDS011;65238;42.662;23.280;2022-11-15T20:23:16;157.93;;;74.38;;
76409;SDS011;65238;42.662;23.280;2022-11-15T20:25:42;161.10;;;80.30;;
76409;SDS011;65238;42.662;23.280;2022-11-15T20:28:09;157.90;;;79.47;;
76409;SDS011;65238;42.662;23.280;2022-11-15T20:30:41;163.88;;;81.28;;
76409;SDS011;65238;42.662;23.280;2022-11-15T20:33:08;167.80;;;81.15;;
76409;SDS011;65238;42.662;23.280;2022-11-15T20:35:33;177.10;;;85.60;;
76409;SDS011;65238;42.662;23.280;2022-11-15T20:37:58;169.68;;;86.70;;
76409;SDS011;65238;42.662;23.280;2022-11-15T20:40:24;169.65;;;85.30;;
76409;SDS011;65238;42.662;23.280;2022-11-15T20:42:52;171.07;;;81.63;;
76409;SDS011;65238;42.662;23.280;2022-11-15T20:45:18;162.38;;;79.72;;
76409;SDS011;65238;42.662;23.280;2022-11-15T20:47:43;156.45;;;78.15;;
76409;SDS011;65238;42.662;23.280;2022-11-15T20:50:09;160.48;;;76.85;;
76409;SDS011;65238;42.662;23.280;2022-11-15T20:52:34;154.75;;;77.47;;
76409;SDS011;65238;42.662;23.280;2022-11-15T20:55:00;164.07;;;78.60;;
76409;SDS011;65238;42.662;23.280;2022-11-15T20:57:25;146.23;;;72.43;;
76409;SDS011;65238;42.662;23.280;2022-11-15T20:59:50;156.93;;;72.05;;
76409;SDS011;65238;42.662;23.280;2022-11-15T21:02:16;139.77;;;66.78;;
76409;SDS011;65238;42.662;23.280;2022-11-15T21:04:41;151.52;;;74.00;;
76409;SDS011;65238;42.662;23.280;2022-11-15T21:07:07;139.10;;;66.90;;
76409;SDS011;65238;42.662;23.280;2022-11-15T21:09:32;137.95;;;67.15;;
76409;SDS011;65238;42.662;23.280;2022-11-15T21:12:16;143.25;;;68.57;;
76409;SDS011;65238;42.662;23.280;2022-11-15T21:14:43;130.38;;;66.35;;
76409;SDS011;65238;42.662;23.280;2022-11-15T21:17:10;137.93;;;66.15;;
76409;SDS011;65238;42.662;23.280;2022-11-15T21:19:35;146.73;;;66.47;;
76409;SDS011;65238;42.662;23.280;2022-11-15T21:22:01;134.23;;;66.57;;
76409;SDS011;65238;42.662;23.280;2022-11-15T21:24:27;149.00;;;65.90;;
76409;SDS011;65238;42.662;23.280;2022-11-15T21:26:53;139.25;;;62.40;;
76409;SDS011;65238;42.662;23.280;2022-11-15T21:29:18;124.20;;;61.10;;
76409;SDS011;65238;42.662;23.280;2022-11-15T21:31:47;148.20;;;64.45;;
76409;SDS011;65238;42.662;23.280;2022-11-15T21:34:14;135.40;;;62.33;;
76409;SDS011;65238;42.662;23.280;2022-11-15T21:36:39;142.55;;;67.82;;
76409;SDS011;65238;42.662;23.280;2022-11-15T21:39:05;137.27;;;63.33;;
76409;SDS011;65238;42.662;23.280;2022-11-15T21:41:30;136.93;;;65.72;;
76409;SDS011;65238;42.662;23.280;2022-11-15T21:44:00;124.97;;;60.85;;
76409;SDS011;65238;42.662;23.280;2022-11-15T21:46:26;125.78;;;59.80;;
76409;SDS011;65238;42.662;23.280;2022-11-15T21:48:53;117.68;;;58.35;;
76409;SDS011;65238;42.662;23.280;2022-11-15T21:51:19;115.50;;;55.15;;
76409;SDS011;65238;42.662;23.280;2022-11-15T21:53:45;108.53;;;54.47;;
76409;SDS011;65238;42.662;23.280;2022-11-15T21:56:10;104.20;;;51.85;;
76409;SDS011;65238;42.662;23.280;2022-11-15T21:58:36;103.75;;;51.90;;
76409;SDS011;65238;42.662;23.280;2022-11-15T22:01:02;111.35;;;52.53;;
76409;SDS011;65238;42.662;23.280;2022-11-15T22:03:46;102.45;;;49.67;;
76409;SDS011;65238;42.662;23.280;2022-11-15T22:06:12;106.63;;;49.25;;
76409;SDS011;65238;42.662;23.280;2022-11-15T22:08:37;102.38;;;50.15;;
76409;SDS011;65238;42.662;23.280;2022-11-15T22:11:02;100.53;;;50.35;;
76409;SDS011;65238;42.662;23.280;2022-11-15T22:13:28;98.95;;;50.05;;
76409;SDS011;65238;42.662;23.280;2022-11-15T22:15:53;94.82;;;48.38;;
76409;SDS011;65238;42.662;23.280;2022-11-15T22:18:20;107.15;;;47.63;;
76409;SDS011;65238;42.662;23.280;2022-11-15T22:20:56;96.55;;;49.15;;
76409;SDS011;65238;42.662;23.280;2022-11-15T22:23:23;101.63;;;46.92;;
76409;SDS011;65238;42.662;23.280;2022-11-15T22:25:52;99.93;;;48.50;;
76409;SDS011;65238;42.662;23.280;2022-11-15T22:28:18;91.30;;;46.15;;
76409;SDS011;65238;42.662;23.280;2022-11-15T22:30:44;94.80;;;45.58;;
76409;SDS011;65238;42.662;23.280;2022-11-15T22:33:13;94.25;;;44.08;;
76409;SDS011;65238;42.662;23.280;2022-11-15T22:35:40;92.28;;;44.83;;
76409;SDS011;65238;42.662;23.280;2022-11-15T22:38:06;89.50;;;44.30;;
76409;SDS011;65238;42.662;23.280;2022-11-15T22:40:31;89.25;;;42.50;;
76409;SDS011;65238;42.662;23.280;2022-11-15T22:43:00;94.63;;;44.60;;
76409;SDS011;65238;42.662;23.280;2022-11-15T22:45:26;91.70;;;46.13;;
76409;SDS011;65238;42.662;23.280;2022-11-15T22:47:51;84.93;;;44.45;;
76409;SDS011;65238;42.662;23.280;2022-11-15T22:50:17;87.45;;;42.92;;
76409;SDS011;65238;42.662;23.280;2022-11-15T22:52:43;84.93;;;42.85;;
76409;SDS011;65238;42.662;23.280;2022-11-15T22:55:08;87.18;;;42.10;;
76409;SDS011;65238;42.662;23.280;2022-11-15T22:57:34;83.40;;;42.45;;
76409;SDS011;65238;42.662;23.280;2022-11-15T23:00:06;89.40;;;41.97;;
76409;SDS011;65238;42.662;23.280;2022-11-15T23:02:34;91.47;;;42.88;;
76409;SDS011;65238;42.662;23.280;2022-11-15T23:05:00;86.47;;;43.45;;
76409;SDS011;65238;42.662;23.280;2022-11-15T23:07:26;92.75;;;44.88;;
76409;SDS011;65238;42.662;23.280;2022-11-15T23:09:51;95.22;;;45.42;;
76409;SDS011;65238;42.662;23.280;2022-11-15T23:12:19;81.80;;;43.05;;
76409;SDS011;65238;42.662;23.280;2022-11-15T23:15:04;92.40;;;42.08;;
76409;SDS011;65238;42.662;23.280;2022-11-15T23:17:30;82.05;;;40.33;;
76409;SDS011;65238;42.662;23.280;2022-11-15T23:19:56;86.05;;;40.75;;
76409;SDS011;65238;42.662;23.280;2022-11-15T23:22:22;89.55;;;42.10;;
76409;SDS011;65238;42.662;23.280;2022-11-15T23:25:06;85.25;;;40.03;;
76409;SDS011;65238;42.662;23.280;2022-11-15T23:27:32;89.22;;;39.58;;
76409;SDS011;65238;42.662;23.280;2022-11-15T23:29:57;77.85;;;37.97;;
76409;SDS011;65238;42.662;23.280;2022-11-15T23:32:41;82.88;;;39.92;;
76409;SDS011;65238;42.662;23.280;2022-11-15T23:35:25;95.82;;;41.40;;
76409;SDS011;65238;42.662;23.280;2022-11-15T23:37:51;87.40;;;42.65;;
76409;SDS011;65238;42.662;23.280;2022-11-15T23:40:17;91.47;;;43.10;;
76409;SDS011;65238;42.662;23.280;2022-11-15T23:42:43;85.38;;;41.75;;
76409;SDS011;65238;42.662;23.280;2022-11-15T23:45:08;89.05;;;41.90;;
76409;SDS011;65238;42.662;23.280;2022-11-15T23:47:33;95.25;;;43.15;;
76409;SDS011;65238;42.662;23.280;2022-11-15T23:49:59;91.35;;;41.78;;
76409;SDS011;65238;42.662;23.280;2022-11-15T23:52:24;92.85;;;46.40;;
76409;SDS011;65238;42.662;23.280;2022-11-15T23:54:50;88.93;;;43.75;;
76409;SDS011;65238;42.662;23.280;2022-11-15T23:57:15;91.60;;;43.60;;
76409;SDS011;65238;42.662;23.280;2022-11-15T23:59:41;95.32;;;44.72;;
